Aéroport d'Albi - Le Séquestre

23/08/2019
OBS MET LFCI*:230600Z 00000KT CAVOK 16/13 Q1021=

PHOTOS